sensor_id;sensor_type;location;lat;lon;timestamp;P1;durP1;ratioP1;P2;durP2;ratioP2
38034;SDS011;23841;48.524;1.342;2023-05-20T00:00:06;7.38;;;3.50;;
38034;SDS011;23841;48.524;1.342;2023-05-20T00:02:32;6.97;;;3.58;;
38034;SDS011;23841;48.524;1.342;2023-05-20T00:04:58;7.40;;;3.70;;
38034;SDS011;23841;48.524;1.342;2023-05-20T00:07:23;9.07;;;3.45;;
38034;SDS011;23841;48.524;1.342;2023-05-20T00:09:48;8.35;;;4.53;;
38034;SDS011;23841;48.524;1.342;2023-05-20T00:12:14;7.35;;;3.60;;
38034;SDS011;23841;48.524;1.342;2023-05-20T00:14:40;13.32;;;4.93;;
38034;SDS011;23841;48.524;1.342;2023-05-20T00:17:05;5.55;;;3.50;;
38034;SDS011;23841;48.524;1.342;2023-05-20T00:19:31;9.05;;;4.25;;
38034;SDS011;23841;48.524;1.342;2023-05-20T00:21:56;10.60;;;4.85;;
38034;SDS011;23841;48.524;1.342;2023-05-20T00:24:22;8.25;;;3.67;;
38034;SDS011;23841;48.524;1.342;2023-05-20T00:26:48;8.10;;;3.50;;
38034;SDS011;23841;48.524;1.342;2023-05-20T00:29:14;7.15;;;3.50;;
38034;SDS011;23841;48.524;1.342;2023-05-20T00:31:39;8.80;;;3.53;;
38034;SDS011;23841;48.524;1.342;2023-05-20T00:34:05;8.18;;;3.65;;
38034;SDS011;23841;48.524;1.342;2023-05-20T00:36:30;7.18;;;3.60;;
38034;SDS011;23841;48.524;1.342;2023-05-20T00:38:55;8.95;;;3.70;;
38034;SDS011;23841;48.524;1.342;2023-05-20T00:41:21;7.15;;;3.20;;
38034;SDS011;23841;48.524;1.342;2023-05-20T00:43:46;6.43;;;3.58;;
38034;SDS011;23841;48.524;1.342;2023-05-20T00:46:12;7.15;;;3.30;;
38034;SDS011;23841;48.524;1.342;2023-05-20T00:48:41;6.38;;;3.60;;
38034;SDS011;23841;48.524;1.342;2023-05-20T00:51:08;7.40;;;3.80;;
38034;SDS011;23841;48.524;1.342;2023-05-20T00:53:35;8.02;;;3.72;;
38034;SDS011;23841;48.524;1.342;2023-05-20T00:56:01;7.43;;;4.05;;
38034;SDS011;23841;48.524;1.342;2023-05-20T00:58:28;7.22;;;3.65;;
38034;SDS011;23841;48.524;1.342;2023-05-20T01:00:53;9.00;;;3.90;;
38034;SDS011;23841;48.524;1.342;2023-05-20T01:03:19;9.23;;;4.10;;
38034;SDS011;23841;48.524;1.342;2023-05-20T01:05:45;7.28;;;3.53;;
38034;SDS011;23841;48.524;1.342;2023-05-20T01:08:10;7.57;;;3.78;;
38034;SDS011;23841;48.524;1.342;2023-05-20T01:10:37;7.50;;;3.58;;
38034;SDS011;23841;48.524;1.342;2023-05-20T01:13:07;10.80;;;4.13;;
38034;SDS011;23841;48.524;1.342;2023-05-20T01:15:39;7.90;;;3.80;;
38034;SDS011;23841;48.524;1.342;2023-05-20T01:18:07;9.02;;;3.33;;
38034;SDS011;23841;48.524;1.342;2023-05-20T01:20:34;8.70;;;4.05;;
38034;SDS011;23841;48.524;1.342;2023-05-20T01:23:01;8.20;;;3.90;;
38034;SDS011;23841;48.524;1.342;2023-05-20T01:25:27;8.38;;;3.90;;
38034;SDS011;23841;48.524;1.342;2023-05-20T01:27:53;7.28;;;3.80;;
38034;SDS011;23841;48.524;1.342;2023-05-20T01:30:21;11.32;;;4.07;;
38034;SDS011;23841;48.524;1.342;2023-05-20T01:33:04;9.60;;;4.05;;
38034;SDS011;23841;48.524;1.342;2023-05-20T01:35:33;8.25;;;3.92;;
38034;SDS011;23841;48.524;1.342;2023-05-20T01:38:00;8.70;;;4.25;;
38034;SDS011;23841;48.524;1.342;2023-05-20T01:40:28;8.20;;;4.22;;
38034;SDS011;23841;48.524;1.342;2023-05-20T01:42:54;6.45;;;3.40;;
38034;SDS011;23841;48.524;1.342;2023-05-20T01:45:22;6.35;;;3.50;;
38034;SDS011;23841;48.524;1.342;2023-05-20T01:47:49;8.60;;;3.88;;
38034;SDS011;23841;48.524;1.342;2023-05-20T01:50:14;10.85;;;4.63;;
38034;SDS011;23841;48.524;1.342;2023-05-20T01:52:40;8.65;;;3.83;;
38034;SDS011;23841;48.524;1.342;2023-05-20T01:55:05;8.43;;;3.90;;
38034;SDS011;23841;48.524;1.342;2023-05-20T01:57:31;9.20;;;3.70;;
38034;SDS011;23841;48.524;1.342;2023-05-20T01:59:56;6.93;;;3.30;;
38034;SDS011;23841;48.524;1.342;2023-05-20T02:02:22;6.82;;;3.70;;
38034;SDS011;23841;48.524;1.342;2023-05-20T02:04:48;7.50;;;3.65;;
38034;SDS011;23841;48.524;1.342;2023-05-20T02:07:15;9.05;;;3.78;;
38034;SDS011;23841;48.524;1.342;2023-05-20T02:09:42;7.88;;;3.83;;
38034;SDS011;23841;48.524;1.342;2023-05-20T02:12:08;7.43;;;3.60;;
38034;SDS011;23841;48.524;1.342;2023-05-20T02:14:40;8.77;;;4.30;;
38034;SDS011;23841;48.524;1.342;2023-05-20T02:17:05;8.30;;;3.53;;
38034;SDS011;23841;48.524;1.342;2023-05-20T02:19:30;6.70;;;3.65;;
38034;SDS011;23841;48.524;1.342;2023-05-20T02:21:56;8.73;;;3.97;;
38034;SDS011;23841;48.524;1.342;2023-05-20T02:24:21;8.77;;;3.50;;
38034;SDS011;23841;48.524;1.342;2023-05-20T02:26:47;7.57;;;4.00;;
38034;SDS011;23841;48.524;1.342;2023-05-20T02:29:15;8.32;;;4.05;;
38034;SDS011;23841;48.524;1.342;2023-05-20T02:31:40;8.05;;;3.90;;
38034;SDS011;23841;48.524;1.342;2023-05-20T02:34:06;7.75;;;4.18;;
38034;SDS011;23841;48.524;1.342;2023-05-20T02:36:32;9.30;;;4.32;;
38034;SDS011;23841;48.524;1.342;2023-05-20T02:38:57;5.70;;;4.03;;
38034;SDS011;23841;48.524;1.342;2023-05-20T02:41:23;6.90;;;3.72;;
38034;SDS011;23841;48.524;1.342;2023-05-20T02:43:48;7.85;;;4.05;;
38034;SDS011;23841;48.524;1.342;2023-05-20T02:46:13;8.57;;;3.60;;
38034;SDS011;23841;48.524;1.342;2023-05-20T02:48:39;8.70;;;4.28;;
38034;SDS011;23841;48.524;1.342;2023-05-20T02:51:05;7.95;;;3.95;;
38034;SDS011;23841;48.524;1.342;2023-05-20T02:53:31;9.48;;;3.97;;
38034;SDS011;23841;48.524;1.342;2023-05-20T02:55:56;7.05;;;3.70;;
38034;SDS011;23841;48.524;1.342;2023-05-20T02:58:21;8.05;;;3.67;;
38034;SDS011;23841;48.524;1.342;2023-05-20T03:00:50;8.95;;;4.22;;
38034;SDS011;23841;48.524;1.342;2023-05-20T03:03:19;7.57;;;3.45;;
38034;SDS011;23841;48.524;1.342;2023-05-20T03:05:44;8.20;;;3.45;;
38034;SDS011;23841;48.524;1.342;2023-05-20T03:08:10;7.88;;;3.67;;
38034;SDS011;23841;48.524;1.342;2023-05-20T03:10:39;9.95;;;3.90;;
38034;SDS011;23841;48.524;1.342;2023-05-20T03:13:05;12.55;;;4.90;;
38034;SDS011;23841;48.524;1.342;2023-05-20T03:15:35;8.10;;;3.65;;
38034;SDS011;23841;48.524;1.342;2023-05-20T03:18:01;10.07;;;3.92;;
38034;SDS011;23841;48.524;1.342;2023-05-20T03:20:27;7.95;;;3.88;;
38034;SDS011;23841;48.524;1.342;2023-05-20T03:22:56;7.90;;;3.78;;
38034;SDS011;23841;48.524;1.342;2023-05-20T03:25:23;8.38;;;4.00;;
38034;SDS011;23841;48.524;1.342;2023-05-20T03:27:48;8.15;;;3.42;;
38034;SDS011;23841;48.524;1.342;2023-05-20T03:30:14;7.47;;;4.05;;
38034;SDS011;23841;48.524;1.342;2023-05-20T03:32:39;11.27;;;4.57;;
38034;SDS011;23841;48.524;1.342;2023-05-20T03:35:05;8.35;;;4.10;;
38034;SDS011;23841;48.524;1.342;2023-05-20T03:37:31;9.13;;;3.97;;
38034;SDS011;23841;48.524;1.342;2023-05-20T03:39:56;9.13;;;3.67;;
38034;SDS011;23841;48.524;1.342;2023-05-20T03:42:22;7.88;;;4.03;;
38034;SDS011;23841;48.524;1.342;2023-05-20T03:44:47;11.23;;;4.10;;
38034;SDS011;23841;48.524;1.342;2023-05-20T03:47:12;6.97;;;3.88;;
38034;SDS011;23841;48.524;1.342;2023-05-20T03:49:38;10.93;;;4.28;;
38034;SDS011;23841;48.524;1.342;2023-05-20T03:52:05;10.55;;;4.25;;
38034;SDS011;23841;48.524;1.342;2023-05-20T03:54:31;9.82;;;4.47;;
38034;SDS011;23841;48.524;1.342;2023-05-20T03:56:56;7.03;;;3.70;;
38034;SDS011;23841;48.524;1.342;2023-05-20T03:59:22;7.95;;;3.95;;
38034;SDS011;23841;48.524;1.342;2023-05-20T04:01:47;8.70;;;4.57;;
38034;SDS011;23841;48.524;1.342;2023-05-20T04:04:13;7.50;;;4.03;;
38034;SDS011;23841;48.524;1.342;2023-05-20T04:06:38;7.55;;;3.95;;
38034;SDS011;23841;48.524;1.342;2023-05-20T04:09:04;8.00;;;3.60;;
38034;SDS011;23841;48.524;1.342;2023-05-20T04:11:30;7.35;;;4.40;;
38034;SDS011;23841;48.524;1.342;2023-05-20T04:13:55;9.25;;;3.47;;
38034;SDS011;23841;48.524;1.342;2023-05-20T04:16:22;8.45;;;4.07;;
38034;SDS011;23841;48.524;1.342;2023-05-20T04:18:48;10.43;;;4.10;;
38034;SDS011;23841;48.524;1.342;2023-05-20T04:21:13;9.13;;;4.60;;
38034;SDS011;23841;48.524;1.342;2023-05-20T04:23:39;9.50;;;4.32;;
38034;SDS011;23841;48.524;1.342;2023-05-20T04:26:04;9.10;;;4.60;;
38034;SDS011;23841;48.524;1.342;2023-05-20T04:28:30;6.88;;;4.05;;
38034;SDS011;23841;48.524;1.342;2023-05-20T04:30:59;9.18;;;4.28;;
38034;SDS011;23841;48.524;1.342;2023-05-20T04:33:28;8.95;;;4.50;;
38034;SDS011;23841;48.524;1.342;2023-05-20T04:35:54;8.30;;;4.15;;
38034;SDS011;23841;48.524;1.342;2023-05-20T04:38:23;11.63;;;4.50;;
38034;SDS011;23841;48.524;1.342;2023-05-20T04:41:03;10.40;;;4.47;;
38034;SDS011;23841;48.524;1.342;2023-05-20T04:43:29;10.30;;;4.60;;
38034;SDS011;23841;48.524;1.342;2023-05-20T04:45:55;14.23;;;5.07;;
38034;SDS011;23841;48.524;1.342;2023-05-20T04:48:21;9.23;;;3.88;;
38034;SDS011;23841;48.524;1.342;2023-05-20T04:50:49;10.02;;;4.18;;
38034;SDS011;23841;48.524;1.342;2023-05-20T04:53:16;9.93;;;4.53;;
38034;SDS011;23841;48.524;1.342;2023-05-20T04:55:42;11.48;;;4.07;;
38034;SDS011;23841;48.524;1.342;2023-05-20T04:58:08;8.35;;;4.32;;
38034;SDS011;23841;48.524;1.342;2023-05-20T05:00:43;9.27;;;4.03;;
38034;SDS011;23841;48.524;1.342;2023-05-20T05:03:09;10.80;;;4.18;;
38034;SDS011;23841;48.524;1.342;2023-05-20T05:05:37;10.75;;;4.53;;
38034;SDS011;23841;48.524;1.342;2023-05-20T05:08:03;11.60;;;4.65;;
38034;SDS011;23841;48.524;1.342;2023-05-20T05:10:29;9.55;;;4.63;;
38034;SDS011;23841;48.524;1.342;2023-05-20T05:12:55;7.97;;;4.32;;
38034;SDS011;23841;48.524;1.342;2023-05-20T05:15:21;8.68;;;4.43;;
38034;SDS011;23841;48.524;1.342;2023-05-20T05:17:46;10.88;;;4.32;;
38034;SDS011;23841;48.524;1.342;2023-05-20T05:20:11;11.15;;;5.03;;
38034;SDS011;23841;48.524;1.342;2023-05-20T05:22:37;7.15;;;4.22;;
38034;SDS011;23841;48.524;1.342;2023-05-20T05:25:04;11.75;;;5.13;;
38034;SDS011;23841;48.524;1.342;2023-05-20T05:27:30;11.10;;;4.78;;
38034;SDS011;23841;48.524;1.342;2023-05-20T05:29:56;11.38;;;4.57;;
38034;SDS011;23841;48.524;1.342;2023-05-20T05:32:21;9.20;;;4.63;;
38034;SDS011;23841;48.524;1.342;2023-05-20T05:34:47;8.95;;;4.38;;
38034;SDS011;23841;48.524;1.342;2023-05-20T05:37:12;9.82;;;5.00;;
38034;SDS011;23841;48.524;1.342;2023-05-20T05:39:38;7.90;;;4.20;;
38034;SDS011;23841;48.524;1.342;2023-05-20T05:42:03;10.77;;;4.32;;
38034;SDS011;23841;48.524;1.342;2023-05-20T05:44:29;11.40;;;4.85;;
38034;SDS011;23841;48.524;1.342;2023-05-20T05:46:55;10.07;;;4.82;;
38034;SDS011;23841;48.524;1.342;2023-05-20T05:49:20;14.60;;;5.95;;
38034;SDS011;23841;48.524;1.342;2023-05-20T05:51:46;10.20;;;5.40;;
38034;SDS011;23841;48.524;1.342;2023-05-20T05:54:11;12.60;;;5.43;;
38034;SDS011;23841;48.524;1.342;2023-05-20T05:56:37;9.05;;;5.05;;
38034;SDS011;23841;48.524;1.342;2023-05-20T05:59:02;12.75;;;5.82;;
38034;SDS011;23841;48.524;1.342;2023-05-20T06:01:28;11.60;;;4.82;;
38034;SDS011;23841;48.524;1.342;2023-05-20T06:03:54;17.02;;;5.72;;
38034;SDS011;23841;48.524;1.342;2023-05-20T06:06:19;11.13;;;5.30;;
38034;SDS011;23841;48.524;1.342;2023-05-20T06:08:45;9.60;;;4.95;;
38034;SDS011;23841;48.524;1.342;2023-05-20T06:11:10;11.63;;;5.28;;
38034;SDS011;23841;48.524;1.342;2023-05-20T06:13:35;9.48;;;5.18;;
38034;SDS011;23841;48.524;1.342;2023-05-20T06:16:01;12.98;;;4.93;;
38034;SDS011;23841;48.524;1.342;2023-05-20T06:18:26;10.40;;;5.15;;
38034;SDS011;23841;48.524;1.342;2023-05-20T06:20:58;10.32;;;5.13;;
38034;SDS011;23841;48.524;1.342;2023-05-20T06:23:24;12.10;;;5.72;;
38034;SDS011;23841;48.524;1.342;2023-05-20T06:25:50;12.55;;;6.30;;
38034;SDS011;23841;48.524;1.342;2023-05-20T06:28:17;11.10;;;5.65;;
38034;SDS011;23841;48.524;1.342;2023-05-20T06:30:42;12.27;;;5.32;;
38034;SDS011;23841;48.524;1.342;2023-05-20T06:33:08;9.48;;;5.32;;
38034;SDS011;23841;48.524;1.342;2023-05-20T06:35:33;14.50;;;6.63;;
38034;SDS011;23841;48.524;1.342;2023-05-20T06:37:59;10.65;;;5.35;;
38034;SDS011;23841;48.524;1.342;2023-05-20T06:40:25;10.55;;;5.75;;
38034;SDS011;23841;48.524;1.342;2023-05-20T06:42:52;12.00;;;5.22;;
38034;SDS011;23841;48.524;1.342;2023-05-20T06:45:18;11.63;;;6.10;;
38034;SDS011;23841;48.524;1.342;2023-05-20T06:47:43;11.68;;;5.65;;
38034;SDS011;23841;48.524;1.342;2023-05-20T06:50:09;10.95;;;5.75;;
38034;SDS011;23841;48.524;1.342;2023-05-20T06:52:35;11.15;;;5.97;;
38034;SDS011;23841;48.524;1.342;2023-05-20T06:55:00;13.90;;;7.30;;
38034;SDS011;23841;48.524;1.342;2023-05-20T06:57:26;11.82;;;5.97;;
38034;SDS011;23841;48.524;1.342;2023-05-20T06:59:52;12.32;;;6.32;;
38034;SDS011;23841;48.524;1.342;2023-05-20T07:02:17;14.65;;;6.60;;
38034;SDS011;23841;48.524;1.342;2023-05-20T07:04:42;11.75;;;6.43;;
38034;SDS011;23841;48.524;1.342;2023-05-20T07:07:08;12.18;;;6.63;;
38034;SDS011;23841;48.524;1.342;2023-05-20T07:09:33;17.42;;;6.93;;
38034;SDS011;23841;48.524;1.342;2023-05-20T07:12:00;11.57;;;6.00;;
38034;SDS011;23841;48.524;1.342;2023-05-20T07:14:26;18.67;;;7.97;;
38034;SDS011;23841;48.524;1.342;2023-05-20T07:16:51;12.05;;;6.10;;
38034;SDS011;23841;48.524;1.342;2023-05-20T07:19:16;13.60;;;7.40;;
38034;SDS011;23841;48.524;1.342;2023-05-20T07:21:42;14.27;;;7.70;;
38034;SDS011;23841;48.524;1.342;2023-05-20T07:24:07;15.82;;;6.72;;
38034;SDS011;23841;48.524;1.342;2023-05-20T07:26:33;14.35;;;7.40;;
38034;SDS011;23841;48.524;1.342;2023-05-20T07:29:00;15.63;;;7.35;;
38034;SDS011;23841;48.524;1.342;2023-05-20T07:31:29;14.75;;;6.72;;
38034;SDS011;23841;48.524;1.342;2023-05-20T07:33:55;15.20;;;8.15;;
38034;SDS011;23841;48.524;1.342;2023-05-20T07:36:20;13.85;;;6.82;;
38034;SDS011;23841;48.524;1.342;2023-05-20T07:38:46;13.32;;;6.78;;
38034;SDS011;23841;48.524;1.342;2023-05-20T07:41:11;16.55;;;7.38;;
38034;SDS011;23841;48.524;1.342;2023-05-20T07:43:37;13.32;;;7.05;;
38034;SDS011;23841;48.524;1.342;2023-05-20T07:46:02;13.05;;;6.75;;
38034;SDS011;23841;48.524;1.342;2023-05-20T07:48:28;13.77;;;7.10;;
38034;SDS011;23841;48.524;1.342;2023-05-20T07:50:53;16.30;;;7.63;;
38034;SDS011;23841;48.524;1.342;2023-05-20T07:53:23;12.52;;;7.30;;
38034;SDS011;23841;48.524;1.342;2023-05-20T07:55:48;17.02;;;7.55;;
38034;SDS011;23841;48.524;1.342;2023-05-20T07:58:14;14.43;;;7.45;;
38034;SDS011;23841;48.524;1.342;2023-05-20T08:00:39;17.17;;;7.90;;
38034;SDS011;23841;48.524;1.342;2023-05-20T08:03:05;13.48;;;7.68;;
38034;SDS011;23841;48.524;1.342;2023-05-20T08:05:31;11.75;;;6.13;;
38034;SDS011;23841;48.524;1.342;2023-05-20T08:07:57;14.02;;;7.57;;
38034;SDS011;23841;48.524;1.342;2023-05-20T08:10:22;12.57;;;7.25;;
38034;SDS011;23841;48.524;1.342;2023-05-20T08:12:48;13.77;;;6.95;;
38034;SDS011;23841;48.524;1.342;2023-05-20T08:15:13;16.13;;;6.80;;
38034;SDS011;23841;48.524;1.342;2023-05-20T08:17:39;17.77;;;6.85;;
38034;SDS011;23841;48.524;1.342;2023-05-20T08:20:04;13.48;;;6.93;;
38034;SDS011;23841;48.524;1.342;2023-05-20T08:22:32;16.63;;;8.00;;
38034;SDS011;23841;48.524;1.342;2023-05-20T08:24:57;12.55;;;7.15;;
38034;SDS011;23841;48.524;1.342;2023-05-20T08:27:23;13.82;;;7.45;;
38034;SDS011;23841;48.524;1.342;2023-05-20T08:29:48;11.73;;;7.07;;
38034;SDS011;23841;48.524;1.342;2023-05-20T08:32:14;14.10;;;7.00;;
38034;SDS011;23841;48.524;1.342;2023-05-20T08:34:39;12.10;;;7.00;;
38034;SDS011;23841;48.524;1.342;2023-05-20T08:37:06;15.23;;;7.07;;
38034;SDS011;23841;48.524;1.342;2023-05-20T08:39:32;15.77;;;7.30;;
38034;SDS011;23841;48.524;1.342;2023-05-20T08:41:57;14.35;;;7.25;;
38034;SDS011;23841;48.524;1.342;2023-05-20T08:44:23;17.55;;;8.00;;
38034;SDS011;23841;48.524;1.342;2023-05-20T08:46:50;15.80;;;6.82;;
38034;SDS011;23841;48.524;1.342;2023-05-20T08:49:16;13.40;;;7.20;;
38034;SDS011;23841;48.524;1.342;2023-05-20T08:51:42;12.20;;;6.72;;
38034;SDS011;23841;48.524;1.342;2023-05-20T08:54:08;12.45;;;6.57;;
38034;SDS011;23841;48.524;1.342;2023-05-20T08:56:35;12.27;;;6.28;;
38034;SDS011;23841;48.524;1.342;2023-05-20T08:59:03;12.75;;;6.80;;
38034;SDS011;23841;48.524;1.342;2023-05-20T09:01:30;17.77;;;8.07;;
38034;SDS011;23841;48.524;1.342;2023-05-20T09:03:56;13.43;;;6.80;;
38034;SDS011;23841;48.524;1.342;2023-05-20T09:06:21;12.20;;;5.95;;
38034;SDS011;23841;48.524;1.342;2023-05-20T09:08:48;12.52;;;7.38;;
38034;SDS011;23841;48.524;1.342;2023-05-20T09:11:15;12.23;;;6.80;;
38034;SDS011;23841;48.524;1.342;2023-05-20T09:13:40;13.52;;;6.13;;
38034;SDS011;23841;48.524;1.342;2023-05-20T09:16:06;14.07;;;6.63;;
38034;SDS011;23841;48.524;1.342;2023-05-20T09:18:36;10.27;;;6.05;;
38034;SDS011;23841;48.524;1.342;2023-05-20T09:21:03;13.48;;;6.28;;
38034;SDS011;23841;48.524;1.342;2023-05-20T09:23:32;13.85;;;6.38;;
38034;SDS011;23841;48.524;1.342;2023-05-20T09:25:59;15.80;;;6.38;;
38034;SDS011;23841;48.524;1.342;2023-05-20T09:28:25;13.35;;;5.53;;
38034;SDS011;23841;48.524;1.342;2023-05-20T09:30:55;13.02;;;6.18;;
38034;SDS011;23841;48.524;1.342;2023-05-20T09:33:33;12.35;;;6.13;;
38034;SDS011;23841;48.524;1.342;2023-05-20T09:36:08;10.38;;;5.90;;
38034;SDS011;23841;48.524;1.342;2023-05-20T09:38:35;11.85;;;5.70;;
38034;SDS011;23841;48.524;1.342;2023-05-20T09:41:09;9.32;;;4.55;;
38034;SDS011;23841;48.524;1.342;2023-05-20T09:43:37;9.85;;;4.85;;
38034;SDS011;23841;48.524;1.342;2023-05-20T09:46:04;7.95;;;5.05;;
38034;SDS011;23841;48.524;1.342;2023-05-20T09:48:31;10.50;;;4.53;;
38034;SDS011;23841;48.524;1.342;2023-05-20T09:50:57;11.68;;;4.82;;
38034;SDS011;23841;48.524;1.342;2023-05-20T09:53:25;7.15;;;4.70;;
38034;SDS011;23841;48.524;1.342;2023-05-20T09:55:52;11.68;;;4.95;;
38034;SDS011;23841;48.524;1.342;2023-05-20T09:58:19;8.00;;;4.07;;
38034;SDS011;23841;48.524;1.342;2023-05-20T10:00:44;9.68;;;4.60;;
38034;SDS011;23841;48.524;1.342;2023-05-20T10:03:10;11.75;;;4.15;;
38034;SDS011;23841;48.524;1.342;2023-05-20T10:05:40;7.35;;;4.07;;
38034;SDS011;23841;48.524;1.342;2023-05-20T10:21:27;10.77;;;3.92;;
38034;SDS011;23841;48.524;1.342;2023-05-20T10:23:53;6.68;;;3.70;;
38034;SDS011;23841;48.524;1.342;2023-05-20T10:26:18;9.35;;;3.88;;
38034;SDS011;23841;48.524;1.342;2023-05-20T10:28:45;10.05;;;4.50;;
38034;SDS011;23841;48.524;1.342;2023-05-20T10:31:14;6.63;;;3.58;;
38034;SDS011;23841;48.524;1.342;2023-05-20T10:33:48;6.35;;;3.33;;
38034;SDS011;23841;48.524;1.342;2023-05-20T10:38:53;7.65;;;3.50;;
38034;SDS011;23841;48.524;1.342;2023-05-20T10:41:21;6.30;;;3.25;;
38034;SDS011;23841;48.524;1.342;2023-05-20T10:46:30;8.82;;;3.63;;
38034;SDS011;23841;48.524;1.342;2023-05-20T10:48:56;8.68;;;3.75;;
38034;SDS011;23841;48.524;1.342;2023-05-20T10:51:22;6.57;;;3.10;;
38034;SDS011;23841;48.524;1.342;2023-05-20T10:53:50;9.05;;;3.92;;
38034;SDS011;23841;48.524;1.342;2023-05-20T10:56:18;7.43;;;3.40;;
38034;SDS011;23841;48.524;1.342;2023-05-20T10:58:45;8.68;;;3.63;;
38034;SDS011;23841;48.524;1.342;2023-05-20T11:01:11;10.13;;;3.40;;
38034;SDS011;23841;48.524;1.342;2023-05-20T11:03:39;5.70;;;2.78;;
38034;SDS011;23841;48.524;1.342;2023-05-20T11:06:15;6.03;;;3.25;;
38034;SDS011;23841;48.524;1.342;2023-05-20T11:08:42;7.00;;;3.08;;
38034;SDS011;23841;48.524;1.342;2023-05-20T11:11:10;7.50;;;2.80;;
38034;SDS011;23841;48.524;1.342;2023-05-20T11:13:39;6.25;;;3.15;;
38034;SDS011;23841;48.524;1.342;2023-05-20T11:16:04;7.00;;;2.80;;
38034;SDS011;23841;48.524;1.342;2023-05-20T11:18:30;7.07;;;3.00;;
38034;SDS011;23841;48.524;1.342;2023-05-20T11:20:59;5.53;;;2.80;;
38034;SDS011;23841;48.524;1.342;2023-05-20T11:23:26;6.05;;;2.88;;
38034;SDS011;23841;48.524;1.342;2023-05-20T11:25:53;6.40;;;2.80;;
38034;SDS011;23841;48.524;1.342;2023-05-20T11:28:20;4.25;;;2.20;;
38034;SDS011;23841;48.524;1.342;2023-05-20T11:30:46;5.15;;;2.30;;
38034;SDS011;23841;48.524;1.342;2023-05-20T11:33:13;6.50;;;3.05;;
38034;SDS011;23841;48.524;1.342;2023-05-20T11:35:46;7.70;;;2.60;;
38034;SDS011;23841;48.524;1.342;2023-05-20T11:38:13;6.95;;;2.40;;
38034;SDS011;23841;48.524;1.342;2023-05-20T11:40:49;5.95;;;2.40;;
38034;SDS011;23841;48.524;1.342;2023-05-20T11:43:19;4.95;;;2.40;;
38034;SDS011;23841;48.524;1.342;2023-05-20T11:45:46;4.85;;;2.47;;
38034;SDS011;23841;48.524;1.342;2023-05-20T11:48:12;4.57;;;2.15;;
38034;SDS011;23841;48.524;1.342;2023-05-20T11:50:43;3.80;;;2.00;;
38034;SDS011;23841;48.524;1.342;2023-05-20T11:53:13;6.85;;;2.85;;
38034;SDS011;23841;48.524;1.342;2023-05-20T11:55:45;5.50;;;2.10;;
38034;SDS011;23841;48.524;1.342;2023-05-20T11:58:19;5.40;;;2.35;;
38034;SDS011;23841;48.524;1.342;2023-05-20T12:00:49;5.65;;;2.20;;
38034;SDS011;23841;48.524;1.342;2023-05-20T12:03:15;5.88;;;2.38;;
38034;SDS011;23841;48.524;1.342;2023-05-20T12:05:41;6.45;;;2.45;;
38034;SDS011;23841;48.524;1.342;2023-05-20T12:08:07;4.78;;;2.08;;
38034;SDS011;23841;48.524;1.342;2023-05-20T12:10:32;4.13;;;2.22;;
38034;SDS011;23841;48.524;1.342;2023-05-20T12:12:58;4.72;;;2.25;;
38034;SDS011;23841;48.524;1.342;2023-05-20T12:15:24;3.45;;;1.77;;
38034;SDS011;23841;48.524;1.342;2023-05-20T12:17:50;7.55;;;2.40;;
38034;SDS011;23841;48.524;1.342;2023-05-20T12:20:18;5.70;;;2.33;;
38034;SDS011;23841;48.524;1.342;2023-05-20T12:22:45;4.60;;;2.40;;
38034;SDS011;23841;48.524;1.342;2023-05-20T12:25:11;5.10;;;2.25;;
38034;SDS011;23841;48.524;1.342;2023-05-20T12:27:39;4.50;;;2.05;;
38034;SDS011;23841;48.524;1.342;2023-05-20T12:30:06;3.92;;;2.13;;
38034;SDS011;23841;48.524;1.342;2023-05-20T12:32:33;5.93;;;1.90;;
38034;SDS011;23841;48.524;1.342;2023-05-20T12:34:58;5.68;;;2.03;;
38034;SDS011;23841;48.524;1.342;2023-05-20T12:37:24;4.63;;;2.30;;
38034;SDS011;23841;48.524;1.342;2023-05-20T12:39:50;4.65;;;2.10;;
38034;SDS011;23841;48.524;1.342;2023-05-20T12:42:15;6.00;;;2.22;;
38034;SDS011;23841;48.524;1.342;2023-05-20T12:44:40;5.43;;;2.40;;
38034;SDS011;23841;48.524;1.342;2023-05-20T12:47:07;5.53;;;2.08;;
38034;SDS011;23841;48.524;1.342;2023-05-20T12:49:33;2.40;;;1.65;;
38034;SDS011;23841;48.524;1.342;2023-05-20T12:51:58;4.78;;;2.20;;
38034;SDS011;23841;48.524;1.342;2023-05-20T12:54:24;3.78;;;1.83;;
38034;SDS011;23841;48.524;1.342;2023-05-20T12:56:52;4.03;;;2.00;;
38034;SDS011;23841;48.524;1.342;2023-05-20T12:59:18;4.90;;;2.08;;
38034;SDS011;23841;48.524;1.342;2023-05-20T13:01:43;3.38;;;1.90;;
38034;SDS011;23841;48.524;1.342;2023-05-20T13:04:09;3.97;;;2.17;;
38034;SDS011;23841;48.524;1.342;2023-05-20T13:06:34;3.75;;;2.10;;
38034;SDS011;23841;48.524;1.342;2023-05-20T13:09:00;5.00;;;2.22;;
38034;SDS011;23841;48.524;1.342;2023-05-20T13:11:26;3.72;;;1.80;;
38034;SDS011;23841;48.524;1.342;2023-05-20T13:13:53;2.70;;;1.65;;
38034;SDS011;23841;48.524;1.342;2023-05-20T13:16:19;3.40;;;2.13;;
38034;SDS011;23841;48.524;1.342;2023-05-20T13:18:44;4.80;;;2.08;;
38034;SDS011;23841;48.524;1.342;2023-05-20T13:21:10;4.78;;;1.85;;
38034;SDS011;23841;48.524;1.342;2023-05-20T13:23:35;4.18;;;1.80;;
38034;SDS011;23841;48.524;1.342;2023-05-20T13:26:01;4.75;;;2.10;;
38034;SDS011;23841;48.524;1.342;2023-05-20T13:28:27;4.25;;;1.90;;
38034;SDS011;23841;48.524;1.342;2023-05-20T13:30:52;4.50;;;1.90;;
38034;SDS011;23841;48.524;1.342;2023-05-20T13:33:18;4.30;;;1.73;;
38034;SDS011;23841;48.524;1.342;2023-05-20T13:35:43;5.18;;;1.90;;
38034;SDS011;23841;48.524;1.342;2023-05-20T13:38:09;6.35;;;2.20;;
38034;SDS011;23841;48.524;1.342;2023-05-20T13:40:34;3.55;;;2.05;;
38034;SDS011;23841;48.524;1.342;2023-05-20T13:43:00;3.38;;;1.95;;
38034;SDS011;23841;48.524;1.342;2023-05-20T13:45:25;4.68;;;2.22;;
38034;SDS011;23841;48.524;1.342;2023-05-20T13:47:51;4.50;;;1.92;;
38034;SDS011;23841;48.524;1.342;2023-05-20T13:50:16;3.90;;;2.20;;
38034;SDS011;23841;48.524;1.342;2023-05-20T13:52:43;3.65;;;2.05;;
38034;SDS011;23841;48.524;1.342;2023-05-20T13:55:09;3.60;;;1.90;;
38034;SDS011;23841;48.524;1.342;2023-05-20T13:57:34;5.00;;;1.92;;
38034;SDS011;23841;48.524;1.342;2023-05-20T13:59:59;4.55;;;2.10;;
38034;SDS011;23841;48.524;1.342;2023-05-20T14:02:25;2.88;;;1.88;;
38034;SDS011;23841;48.524;1.342;2023-05-20T14:04:50;3.70;;;1.85;;
38034;SDS011;23841;48.524;1.342;2023-05-20T14:07:16;3.28;;;2.13;;
38034;SDS011;23841;48.524;1.342;2023-05-20T14:09:41;4.00;;;2.10;;
38034;SDS011;23841;48.524;1.342;2023-05-20T14:12:07;3.78;;;2.03;;
38034;SDS011;23841;48.524;1.342;2023-05-20T14:14:32;3.30;;;1.95;;
38034;SDS011;23841;48.524;1.342;2023-05-20T14:16:58;5.70;;;2.05;;
38034;SDS011;23841;48.524;1.342;2023-05-20T14:19:24;4.20;;;1.90;;
38034;SDS011;23841;48.524;1.342;2023-05-20T14:21:50;3.47;;;1.80;;
38034;SDS011;23841;48.524;1.342;2023-05-20T14:24:15;5.72;;;2.58;;
38034;SDS011;23841;48.524;1.342;2023-05-20T14:26:41;3.42;;;1.90;;
38034;SDS011;23841;48.524;1.342;2023-05-20T14:29:06;3.63;;;2.00;;
38034;SDS011;23841;48.524;1.342;2023-05-20T14:31:32;3.72;;;1.63;;
38034;SDS011;23841;48.524;1.342;2023-05-20T14:33:57;3.50;;;1.70;;
38034;SDS011;23841;48.524;1.342;2023-05-20T14:36:23;6.32;;;2.63;;
38034;SDS011;23841;48.524;1.342;2023-05-20T14:38:48;3.75;;;1.77;;
38034;SDS011;23841;48.524;1.342;2023-05-20T14:41:13;3.50;;;1.73;;
38034;SDS011;23841;48.524;1.342;2023-05-20T14:43:39;3.22;;;1.80;;
38034;SDS011;23841;48.524;1.342;2023-05-20T14:46:04;4.40;;;2.00;;
38034;SDS011;23841;48.524;1.342;2023-05-20T14:48:30;3.53;;;1.80;;
38034;SDS011;23841;48.524;1.342;2023-05-20T14:50:55;4.40;;;2.22;;
38034;SDS011;23841;48.524;1.342;2023-05-20T14:53:21;4.63;;;2.10;;
38034;SDS011;23841;48.524;1.342;2023-05-20T14:55:46;5.00;;;1.90;;